createdAt,value
2023-04-14T00:04:27.718Z,85.14
2023-04-14T00:14:49.782Z,85.22
2023-04-14T00:25:11.172Z,85.13
2023-04-14T00:35:32.663Z,85.45
2023-04-14T00:45:54.546Z,84.75
2023-04-14T00:56:15.977Z,85.66
2023-04-14T01:06:37.416Z,86.16
2023-04-14T01:17:19.568Z,86.00
2023-04-14T01:27:50.462Z,85.91
2023-04-14T01:38:14.872Z,85.39
2023-04-14T01:48:36.651Z,85.05
2023-04-14T01:58:58.761Z,86.46
2023-04-14T02:09:20.896Z,85.17
2023-04-14T02:19:43.951Z,85.10
2023-04-14T02:30:11.649Z,86.70
2023-04-14T02:40:36.236Z,85.81
2023-04-14T02:50:59.019Z,85.19
2023-04-14T03:01:21.371Z,86.83
2023-04-14T03:11:43.072Z,86.74
2023-04-14T03:22:04.566Z,86.13
2023-04-14T03:32:29.231Z,86.12
2023-04-14T03:42:51.576Z,86.56
2023-04-14T03:53:14.853Z,85.57
2023-04-14T04:03:38.423Z,86.48
2023-04-14T04:14:01.948Z,86.24
2023-04-14T04:24:24.648Z,87.37
2023-04-14T04:34:46.580Z,86.90
2023-04-14T04:45:08.410Z,86.16
2023-04-14T04:55:29.758Z,86.25
2023-04-14T05:05:51.220Z,87.15
2023-04-14T05:16:17.205Z,88.01
2023-04-14T05:26:57.465Z,87.43
2023-04-14T05:37:20.293Z,86.70
2023-04-14T05:47:41.690Z,88.61
2023-04-14T05:58:03.071Z,88.27
2023-04-14T06:08:25.391Z,89.08
2023-04-14T06:18:46.758Z,90.38
2023-04-14T06:29:08.482Z,88.63
2023-04-14T06:39:29.937Z,88.18
2023-04-14T06:49:51.553Z,88.09
2023-04-14T07:00:14.099Z,89.16
2023-04-14T07:10:35.665Z,86.93
2023-04-14T07:20:57.713Z,87.81
2023-04-14T07:31:19.631Z,88.75
2023-04-14T07:41:41.518Z,85.39
2023-04-14T07:52:03.925Z,85.85
2023-04-14T08:02:26.152Z,85.61
2023-04-14T08:12:48.779Z,84.68
2023-04-14T08:23:11.631Z,85.00
2023-04-14T08:33:33.878Z,83.32
2023-04-14T08:43:55.634Z,81.67
2023-04-14T08:54:18.122Z,80.00
2023-04-14T09:04:42.404Z,77.94
2023-04-14T09:15:04.538Z,76.40
2023-04-14T09:25:26.273Z,73.85
2023-04-14T09:35:49.146Z,70.49
2023-04-14T09:46:10.763Z,71.34
2023-04-14T09:56:32.192Z,69.74
2023-04-14T10:06:57.531Z,71.21
2023-04-14T10:17:19.748Z,68.21
2023-04-14T10:27:41.509Z,68.18
2023-04-14T10:38:04.603Z,64.39
2023-04-14T10:48:26.972Z,67.88
2023-04-14T10:58:59.239Z,63.92
2023-04-14T11:09:24.386Z,62.92
2023-04-14T11:19:45.958Z,63.35
2023-04-14T11:30:08.508Z,63.01
2023-04-14T11:40:30.150Z,62.78
2023-04-14T11:50:52.159Z,54.88
2023-04-14T12:01:14.899Z,59.74
2023-04-14T12:11:36.497Z,59.23
2023-04-14T12:21:57.880Z,62.37
2023-04-14T12:32:21.335Z,50.06
2023-04-14T12:42:43.773Z,61.04
2023-04-14T12:53:24.608Z,62.48
2023-04-14T13:03:47.133Z,63.73
2023-04-14T13:14:08.762Z,60.98
2023-04-14T13:24:30.209Z,59.81
2023-04-14T13:34:52.550Z,53.85
2023-04-14T13:45:14.244Z,56.15
2023-04-14T13:55:36.147Z,45.53
2023-04-14T14:05:57.889Z,57.88
2023-04-14T14:16:35.561Z,44.45
2023-04-14T14:26:58.266Z,58.16
2023-04-14T14:37:21.243Z,60.27
2023-04-14T14:47:42.816Z,65.02
2023-04-14T14:58:06.250Z,61.88
2023-04-14T15:08:27.937Z,58.91
2023-04-14T15:18:49.353Z,58.37
2023-04-14T15:29:11.013Z,59.36
2023-04-14T15:39:32.530Z,63.37
2023-04-14T15:50:09.165Z,63.00
2023-04-14T16:00:31.812Z,63.82
2023-04-14T16:10:53.508Z,61.04
2023-04-14T16:21:14.964Z,60.20
2023-04-14T16:31:36.429Z,59.55
2023-04-14T16:41:57.823Z,59.14
2023-04-14T16:52:19.322Z,60.28
2023-04-14T17:02:41.274Z,60.03
2023-04-14T17:13:02.876Z,59.84
2023-04-14T17:23:24.337Z,61.60
2023-04-14T17:33:46.027Z,61.71
2023-04-14T17:44:07.502Z,63.68
2023-04-14T17:54:29.309Z,56.94
2023-04-14T18:04:50.668Z,56.29
2023-04-14T18:15:15.526Z,64.39
2023-04-14T18:36:01.296Z,64.66
2023-04-14T18:46:22.966Z,65.79
2023-04-14T18:56:44.534Z,65.40
2023-04-14T19:07:05.881Z,65.43
2023-04-14T19:17:27.297Z,65.14
2023-04-14T19:27:48.712Z,66.13
2023-04-14T19:38:10.114Z,66.48
2023-04-14T19:48:34.569Z,67.74
2023-04-14T19:58:55.970Z,67.91
2023-04-14T20:09:17.334Z,67.18
2023-04-14T20:19:38.856Z,68.49
2023-04-14T20:30:01.277Z,69.53
2023-04-14T20:40:22.809Z,69.89
2023-04-14T20:50:44.530Z,70.76
2023-04-14T21:01:06.186Z,69.57
2023-04-14T21:11:28.004Z,71.56
2023-04-14T21:21:49.359Z,71.54
2023-04-14T21:32:10.921Z,72.48
2023-04-14T21:42:32.488Z,72.57
2023-04-14T21:52:53.876Z,72.62
2023-04-14T22:03:15.400Z,72.51
2023-04-14T22:13:36.825Z,73.31
2023-04-14T22:23:58.505Z,73.41
2023-04-14T22:34:19.939Z,73.53
2023-04-14T22:44:41.300Z,73.40
2023-04-14T22:55:02.698Z,73.32
2023-04-14T23:05:24.286Z,73.90
2023-04-14T23:15:46.214Z,74.39
2023-04-14T23:26:08.150Z,75.57
2023-04-14T23:36:30.789Z,75.09
2023-04-14T23:46:52.179Z,75.74
2023-04-14T23:57:13.642Z,75.82
